• Join FlightAware (Why Join?)
  • Login
  • US Flag 
12:24AM EDT


 

Airport Tracker/Info


-or-


 

Live Flight TrackerFlight Track Log ✈ UAL3779 ✈ 17-Apr-2013 ✈ KOKC - KORD

Flight Track Log - Related Links

Times and Time Zones

All times are in EDT time to prevent confusion due to time zone crossing. See the UAL3779 flight status page for this flight to view local times or setup timezone preferences in your user account.

Time Position Orientation Groundspeed Altitude Reporting Facility
EDT Latitude Longitude Course Direction KTS MPH feet Rate Location/Type
06:57AM 35.4122 -97.6072 10° North 179 206 2,000  Level Fort Worth Center
06:58AM 35.4478 -97.5994 10° North 212 244 3,000 2,040 Climbing Fort Worth Center
06:59AM 35.4936 -97.5333 50° Northeast 293 337 5,300 2,700 Climbing Fort Worth Center
07:00AM 35.5314 -97.4417 63° Northeast 313 360 8,500 2,520 Climbing Fort Worth Center
07:02AM 35.5972 -97.2828 63° Northeast 327 376 12,500 2,220 Climbing Kansas City Center
07:03AM 35.6556 -97.1458 62° Northeast 369 425 14,900 2,220 Climbing Kansas City Center
07:04AM 35.6958 -97.0475 63° Northeast 393 452 17,000 2,640 Climbing Kansas City Center
07:05AM 35.7556 -96.8992 64° Northeast 401 461 20,100 2,580 Climbing Kansas City Center
07:06AM 35.8067 -96.7708 64° Northeast 413 475 22,300 1,920 Climbing Kansas City Center
07:07AM 35.8597 -96.6389 64° Northeast 426 490 24,100 1,860 Climbing Kansas City Center
07:08AM 35.9133 -96.5028 64° Northeast 437 503 26,200 1,980 Climbing Kansas City Center
07:09AM 35.9656 -96.3733 63° Northeast 440 506 28,200 1,680 Climbing Kansas City Center
07:10AM 36.0206 -96.2342 64° Northeast 447 514 29,600 1,440 Climbing Kansas City Center
07:11AM 36.0772 -96.0919 64° Northeast 456 525 31,100 1,380 Climbing Kansas City Center
07:12AM 36.1344 -95.9464 64° Northeast 467 537 32,400 1,380 Climbing Kansas City Center
07:13AM 36.1914 -95.8011 64° Northeast 468 539 34,000 1,500 Climbing Kansas City Center
07:14AM 36.2597 -95.6569 60° Northeast 468 539 35,400 1,260 Climbing Kansas City Center
07:15AM 36.3267 -95.5186 59° Northeast 468 539 36,600 1,140 Climbing Kansas City Center
07:16AM 36.3933 -95.3786 59° Northeast 470 541 37,800 1,140 Climbing Kansas City Center
07:17AM 36.4597 -95.2428 59° Northeast 466 536 39,000 540 Climbing Kansas City Center
07:18AM 36.5317 -95.0936 59° Northeast 463 533 39,000  Level Kansas City Center
07:19AM 36.5994 -94.9508 59° Northeast 474 545 39,000  Level Kansas City Center
07:20AM 36.6675 -94.8067 59° Northeast 479 551 39,000  Level Kansas City Center
07:21AM 36.7353 -94.6633 59° Northeast 481 554 39,000  Level Kansas City Center
07:22AM 36.8019 -94.5208 60° Northeast 477 549 39,000  Level Kansas City Center
07:23AM 36.8867 -94.3947 50° Northeast 475 547 39,000  Level Kansas City Center
07:24AM 36.9900 -94.2942 38° Northeast 470 541 39,000  Level Kansas City Center
07:25AM 37.0939 -94.1925 38° Northeast 473 544 39,000  Level Kansas City Center
07:26AM 37.1975 -94.0919 38° Northeast 472 543 39,000  Level Kansas City Center
07:27AM 37.3111 -93.9806 38° Northeast 469 540 39,000  Level Kansas City Center
07:28AM 37.4128 -93.8794 38° Northeast 466 536 39,000  Level Kansas City Center
07:29AM 37.5150 -93.7756 39° Northeast 468 539 39,000  Level Kansas City Center
07:30AM 37.6164 -93.6728 39° Northeast 466 536 39,000  Level Kansas City Center
07:31AM 37.7181 -93.5700 39° Northeast 465 535 39,000  Level Kansas City Center
07:32AM 37.8203 -93.4669 39° Northeast 465 535 39,000  Level Kansas City Center
07:33AM 37.9225 -93.3633 39° Northeast 467 537 39,000  Level Kansas City Center
07:34AM 38.0342 -93.2800 30° Northeast 466 536 39,000  Level Kansas City Center
07:35AM 38.1597 -93.2792 360° North 454 522 39,000  Level Kansas City Center
07:36AM 38.2850 -93.2936 355° North 448 516 39,000  Level Kansas City Center
07:37AM 38.4089 -93.2542 14° North 461 531 39,000  Level Kansas City Center
07:38AM 38.4889 -93.1206 53° Northeast 475 547 39,000  Level Kansas City Center
07:39AM 38.5317 -92.9547 72° East 483 556 39,000  Level Kansas City Center
07:40AM 38.5722 -92.7894 73° East 484 557 39,000  Level Kansas City Center
07:41AM 38.6053 -92.6200 76° East 487 560 39,000  Level Kansas City Center
07:42AM 38.6275 -92.4483 81° East 487 560 39,000  Level Kansas City Center
07:43AM 38.6494 -92.2750 81° East 488 562 39,000  Level Kansas City Center
07:44AM 38.6708 -92.1033 81° East 485 558 39,000  Level Kansas City Center
07:45AM 38.6914 -91.9325 81° East 483 556 39,000  Level Kansas City Center
07:46AM 38.7128 -91.7608 81° East 483 556 39,000  Level Kansas City Center
07:47AM 38.7306 -91.6089 81° East 483 556 39,000  Level Kansas City Center
07:48AM 38.7556 -91.4053 81° East 483 556 39,000  Level Kansas City Center
07:49AM 38.7742 -91.2353 82° East 482 555 39,000  Level Kansas City Center
07:50AM 38.7983 -91.0678 79° East 481 554 39,000  Level Kansas City Center
07:52AM 38.8711 -90.9256 57° Northeast 475 547 39,000  Level Kansas City Center
07:53AM 38.9661 -90.8086 44° Northeast 470 541 39,000 -240 Level Kansas City Center
07:54AM 39.0603 -90.6892 45° Northeast 471 542 38,600 -960 Descending Kansas City Center
07:55AM 39.1564 -90.5650 45° Northeast 480 552 37,100 -1,380 Descending Kansas City Center
07:56AM 39.2489 -90.4444 45° Northeast 475 547 35,900 -1,320 Descending Kansas City Center
07:57AM 39.3417 -90.3269 44° Northeast 469 540 34,500 -1,440 Descending Kansas City Center
07:58AM 39.4369 -90.2042 45° Northeast 477 549 33,000 -1,440 Descending Kansas City Center
07:59AM 39.5328 -90.0786 45° Northeast 485 558 31,500 -1,440 Descending Kansas City Center
08:00AM 39.6300 -89.9519 45° Northeast 492 566 30,100 -1,320 Descending Kansas City Center
08:01AM 39.7200 -89.8344 45° Northeast 484 557 28,900 -1,320 Descending Kansas City Center
08:02AM 39.8356 -89.6850 45° Northeast 487 560 27,500 -1,140 Descending Kansas City Center
08:02AM 39.8983 -89.6208 38° Northeast 489 563 27,000 -300 Descending Chicago Center
08:03AM 40.0072 -89.5186 36° Northeast 485 558 27,000  Level Chicago Center
08:04AM 40.1178 -89.4150 36° Northeast 492 566 27,000  Level Chicago Center
08:05AM 40.2275 -89.3089 36° Northeast 493 567 27,000 -60 Level Chicago Center
08:07AM 40.4650 -89.0781 36° Northeast 487 560 26,900 -480 Descending Chicago Center
08:08AM 40.5756 -88.9711 36° Northeast 495 570 25,600 -1,320 Descending Chicago Center
08:10AM 40.6864 -88.8631 36° Northeast 496 571 24,300 -1,320 Descending Chicago Center
08:11AM 40.8008 -88.7525 36° Northeast 494 568 22,900 -1,320 Descending Chicago Center
08:12AM 40.9278 -88.7167 12° North 481 554 21,600 -1,320 Descending Chicago Center
08:13AM 41.0503 -88.6981 North 449 517 20,200 -1,920 Descending Chicago Center
08:14AM 41.1681 -88.6806 North 430 495 17,700 -2,820 Descending Chicago Center
08:15AM 41.3019 -88.6597 North 405 466 14,500 -3,000 Descending Chicago Center
08:16AM 41.4072 -88.6450 North 382 440 11,600 -1,740 Descending Chicago Center
08:17AM 41.4961 -88.6136 15° North 335 386 11,000 -300 Descending Chicago Center
08:18AM 41.5564 -88.5281 47° Northeast 321 369 11,100  Climbing Chicago Center
08:19AM 41.5850 -88.4275 69° East 290 334 11,000 -540 Descending Chicago Center
08:20AM 41.6011 -88.3419 76° East 243 280 10,000 -1,260 Descending Chicago Center
08:21AM 41.6161 -88.2611 76° East 227 261 8,500 -1,200 Descending Chicago Center
08:22AM 41.6622 -88.2306 26° Northeast 203 234 7,600 -1,200 Descending Chicago Center
08:23AM 41.7158 -88.1842 33° Northeast 190 219 6,100 -900 Descending Chicago Center
08:24AM 41.7528 -88.1372 43° Northeast 188 216 5,800 -540 Descending Chicago Center
08:25AM 41.7931 -88.0906 41° Northeast 189 217 5,100 -960 Descending Chicago Center
08:26AM 41.8347 -88.0411 41° Northeast 195 224 3,900 -1,140 Descending Chicago Center
08:27AM 41.8833 -87.9833 41° Northeast 180 207 2,800 -1,020 Descending Chicago TRACON
08:28AM 41.9167 -87.9500 37° Northeast 146 168 1,900 -840 Descending Chicago TRACON
08:29AM 41.9333 -87.9167 56° Northeast 124 143 1,200 -720 Descending Chicago TRACON
08:31AM 41.9667 -87.9000 41° Northeast  Level FlightAware Approximate